Time;durP1;ratioP1;P1;durP2;ratioP2;P2;SDS_P1;SDS_P2;PMS_P1;PMS_P2;Temp;Humidity;BMP_temperature;BMP_pressure;BME280_temperature;BME280_humidity;BME280_pressure;Samples;Min_cycle;Max_cycle;Signal;HPM_P1;HPM_P2
2022/08/14 00:00:50;;;;;;;13.05;10.98;;;14.40;99.90;;;;;;4823043;29;20098;-51
2022/08/14 00:03:28;;;;;;;14.38;9.95;;;14.30;99.90;;;;;;4823831;29;20042;-50
2022/08/14 00:05:56;;;;;;;12.07;10.82;;;14.20;99.90;;;;;;4823700;29;20113;-53
2022/08/14 00:08:22;;;;;;;12.02;9.80;;;14.10;99.90;;;;;;4823848;29;20677;-51
2022/08/14 00:10:48;;;;;;;13.90;9.25;;;14.10;99.90;;;;;;4823932;29;20095;-51
2022/08/14 00:13:16;;;;;;;13.38;9.48;;;14.00;99.90;;;;;;4823457;29;20046;-52
2022/08/14 00:15:45;;;;;;;11.90;10.35;;;14.00;99.90;;;;;;4823307;29;20573;-50
2022/08/14 00:18:14;;;;;;;11.40;9.60;;;14.00;99.90;;;;;;4823446;29;20103;-51
2022/08/14 00:20:41;;;;;;;12.18;9.60;;;13.90;99.90;;;;;;4823648;29;20030;-50
2022/08/14 00:23:08;;;;;;;15.07;9.88;;;13.90;99.90;;;;;;4823492;29;20026;-51
2022/08/14 00:25:34;;;;;;;14.45;9.50;;;13.90;99.90;;;;;;4823741;29;20081;-51
2022/08/14 00:28:01;;;;;;;12.48;9.70;;;13.80;99.90;;;;;;4823218;29;20110;-50
2022/08/14 00:30:27;;;;;;;13.32;9.60;;;13.80;99.90;;;;;;4823816;29;20026;-50
2022/08/14 00:32:53;;;;;;;10.75;8.68;;;13.80;99.90;;;;;;4823289;29;20495;-50
2022/08/14 00:35:18;;;;;;;18.50;9.43;;;13.70;99.90;;;;;;4823321;29;20026;-50
2022/08/14 00:37:45;;;;;;;12.27;9.30;;;13.60;99.90;;;;;;4823438;29;20038;-50
2022/08/14 00:40:13;;;;;;;16.08;8.98;;;13.60;99.90;;;;;;4823055;29;20106;-50
2022/08/14 00:42:39;;;;;;;15.90;9.60;;;13.70;99.90;;;;;;4823564;29;20118;-50
2022/08/14 00:45:07;;;;;;;13.13;9.30;;;13.60;99.90;;;;;;4822654;29;20045;-51
2022/08/14 00:47:34;;;;;;;14.60;8.75;;;13.60;99.90;;;;;;4822953;29;20046;-51
2022/08/14 00:50:02;;;;;;;10.15;9.02;;;13.70;99.90;;;;;;4822760;29;20041;-51
2022/08/14 00:52:28;;;;;;;10.02;8.48;;;13.60;99.90;;;;;;4820016;29;20493;-50
2022/08/14 00:54:55;;;;;;;11.30;9.10;;;13.50;99.90;;;;;;4823199;29;20030;-50
2022/08/14 00:57:24;;;;;;;10.98;9.40;;;13.60;99.90;;;;;;4823191;29;20029;-50
2022/08/14 00:59:50;;;;;;;14.60;9.73;;;13.60;99.90;;;;;;4821704;29;20098;-49
2022/08/14 01:02:19;;;;;;;22.98;8.77;;;13.60;99.90;;;;;;4822620;29;20391;-53
2022/08/14 01:04:46;;;;;;;13.43;8.07;;;13.60;99.90;;;;;;4823160;29;20034;-53
2022/08/14 01:07:18;;;;;;;14.65;8.20;;;13.50;99.90;;;;;;4821405;29;20145;-51
2022/08/14 01:09:46;;;;;;;8.93;8.02;;;13.50;99.90;;;;;;4822947;29;20036;-50
2022/08/14 01:12:11;;;;;;;16.20;8.93;;;13.40;99.90;;;;;;4822716;29;20042;-51
2022/08/14 01:14:37;;;;;;;10.38;8.75;;;13.40;99.90;;;;;;4822405;29;20076;-51
2022/08/14 01:17:03;;;;;;;12.30;9.18;;;13.30;99.90;;;;;;4822799;29;20433;-50
2022/08/14 01:22:14;;;;;;;11.65;8.70;;;13.30;99.90;;;;;;4822944;29;20049;-50
2022/08/14 01:24:40;;;;;;;16.58;8.55;;;13.30;99.90;;;;;;4822735;29;20034;-50
2022/08/14 01:27:06;;;;;;;12.00;8.15;;;13.20;99.90;;;;;;4822734;29;20030;-50
2022/08/14 01:29:36;;;;;;;12.05;8.55;;;13.20;99.90;;;;;;4822576;29;20204;-51
2022/08/14 01:32:04;;;;;;;11.85;9.13;;;13.20;99.90;;;;;;4822312;29;20419;-51
2022/08/14 01:34:31;;;;;;;11.07;9.48;;;13.10;99.90;;;;;;4822419;29;20050;-51
2022/08/14 01:36:58;;;;;;;15.32;9.35;;;13.20;99.90;;;;;;4822556;29;20030;-52
2022/08/14 01:39:24;;;;;;;14.25;9.00;;;13.10;99.90;;;;;;4822711;29;20082;-50
2022/08/14 01:41:59;;;;;;;12.52;10.18;;;13.10;99.90;;;;;;4822465;29;20114;-50
2022/08/14 01:44:29;;;;;;;13.57;8.73;;;13.10;99.90;;;;;;4822591;29;20034;-50
2022/08/14 01:46:57;;;;;;;13.52;9.00;;;13.10;99.90;;;;;;4818676;29;20576;-50
2022/08/14 01:49:24;;;;;;;14.10;8.93;;;13.10;99.90;;;;;;4822276;29;20037;-51
2022/08/14 01:51:55;;;;;;;16.50;9.18;;;13.10;99.90;;;;;;4822492;29;20052;-50
2022/08/14 01:54:22;;;;;;;13.02;8.60;;;13.10;99.90;;;;;;4822161;29;20045;-52
2022/08/14 01:56:55;;;;;;;11.90;8.82;;;13.10;99.90;;;;;;4822519;29;20122;-50
2022/08/14 01:59:25;;;;;;;12.98;9.00;;;13.10;99.90;;;;;;4804243;29;20055;-52
2022/08/14 02:01:53;;;;;;;13.43;8.80;;;13.00;99.90;;;;;;4818078;29;20450;-50
2022/08/14 02:04:20;;;;;;;14.63;9.00;;;13.00;99.90;;;;;;4822221;29;20042;-50
2022/08/14 02:06:47;;;;;;;15.25;8.95;;;12.90;99.90;;;;;;4822504;29;20035;-52
2022/08/14 02:09:13;;;;;;;15.15;9.45;;;12.90;99.90;;;;;;4821984;29;20042;-49
2022/08/14 02:11:38;;;;;;;10.23;7.85;;;12.90;99.90;;;;;;4822475;29;20437;-50
2022/08/14 02:14:07;;;;;;;12.07;8.40;;;12.90;99.90;;;;;;4821779;29;20046;-50
2022/08/14 02:16:39;;;;;;;12.68;9.25;;;12.90;99.90;;;;;;4822232;29;20034;-50
2022/08/14 02:19:08;;;;;;;16.45;9.00;;;12.80;99.90;;;;;;4822266;29;20701;-49
2022/08/14 02:21:35;;;;;;;15.23;9.23;;;12.70;99.90;;;;;;4822475;29;20030;-49
2022/08/14 02:24:02;;;;;;;15.00;9.75;;;12.70;99.90;;;;;;4823015;29;20041;-49
2022/08/14 02:26:31;;;;;;;14.20;10.77;;;12.70;99.90;;;;;;4825232;29;20114;-52
2022/08/14 02:29:04;;;;;;;13.10;9.68;;;12.70;99.90;;;;;;4825148;29;20117;-52
2022/08/14 02:31:32;;;;;;;16.17;10.00;;;12.70;99.90;;;;;;4825000;29;20522;-51
2022/08/14 02:34:02;;;;;;;15.70;8.85;;;12.70;99.90;;;;;;4825195;29;20038;-50
2022/08/14 02:36:28;;;;;;;11.35;9.18;;;12.60;99.90;;;;;;4825430;29;20026;-50
2022/08/14 02:38:54;;;;;;;13.82;9.43;;;12.70;99.90;;;;;;4824975;29;20040;-51
2022/08/14 02:41:20;;;;;;;10.90;8.52;;;12.70;99.90;;;;;;4824613;29;20038;-50
2022/08/14 02:43:46;;;;;;;14.07;9.68;;;12.70;99.90;;;;;;4825116;29;20038;-50
2022/08/14 02:46:13;;;;;;;13.98;8.63;;;12.60;99.90;;;;;;4824615;29;20053;-50
2022/08/14 02:48:42;;;;;;;20.05;10.10;;;12.60;99.90;;;;;;4825023;29;20475;-51
2022/08/14 02:51:11;;;;;;;13.77;10.10;;;12.50;99.90;;;;;;4825042;29;20065;-51
2022/08/14 02:53:43;;;;;;;12.40;9.07;;;12.50;99.90;;;;;;4824708;29;20056;-50
2022/08/14 02:56:14;;;;;;;14.90;9.38;;;12.50;99.90;;;;;;4824794;29;20371;-50
2022/08/14 02:58:46;;;;;;;10.02;8.93;;;12.60;99.90;;;;;;4824943;29;20481;-49
2022/08/14 03:01:15;;;;;;;12.48;9.65;;;12.50;99.90;;;;;;4824591;29;20038;-50
2022/08/14 03:03:41;;;;;;;21.13;10.07;;;12.40;99.90;;;;;;4824795;29;20119;-50
2022/08/14 03:06:08;;;;;;;17.13;8.75;;;12.50;99.90;;;;;;4824747;29;20038;-51
2022/08/14 03:08:36;;;;;;;12.70;10.30;;;12.50;99.90;;;;;;4824783;29;20038;-49
2022/08/14 03:11:06;;;;;;;14.95;9.82;;;12.50;99.90;;;;;;4824622;29;20037;-50
2022/08/14 03:13:36;;;;;;;13.77;9.68;;;12.50;99.90;;;;;;4824515;29;20051;-50
2022/08/14 03:16:07;;;;;;;12.75;9.73;;;12.40;99.90;;;;;;4824481;29;20030;-50
2022/08/14 03:18:33;;;;;;;18.10;9.55;;;12.40;99.90;;;;;;4824652;29;20483;-51
2022/08/14 03:21:02;;;;;;;19.60;10.02;;;12.40;99.90;;;;;;4823157;29;20042;-51
2022/08/14 03:23:32;;;;;;;14.93;9.10;;;12.40;99.90;;;;;;4824642;29;20153;-49
2022/08/14 03:25:59;;;;;;;14.00;9.57;;;12.40;99.90;;;;;;4824166;29;20039;-52
2022/08/14 03:28:28;;;;;;;21.17;9.88;;;12.40;99.90;;;;;;4822905;29;20501;-51
2022/08/14 03:30:54;;;;;;;13.43;9.48;;;12.30;99.90;;;;;;4824494;29;20101;-51
2022/08/14 03:33:20;;;;;;;14.23;9.82;;;12.20;99.90;;;;;;4823869;29;20067;-50
2022/08/14 03:35:45;;;;;;;14.18;9.27;;;12.20;99.90;;;;;;4823436;29;20178;-51
2022/08/14 03:38:12;;;;;;;16.60;10.00;;;12.20;99.90;;;;;;4823862;29;20032;-51
2022/08/14 03:40:40;;;;;;;14.63;9.32;;;12.20;99.90;;;;;;4822848;29;20042;-50
2022/08/14 03:43:07;;;;;;;15.15;8.93;;;12.20;99.90;;;;;;4823951;29;20118;-50
2022/08/14 03:45:35;;;;;;;11.35;9.23;;;12.10;99.90;;;;;;4809428;29;20113;-50
2022/08/14 03:48:19;;;;;;;17.88;10.27;;;12.10;99.90;;;;;;4823758;29;20042;-51
2022/08/14 03:50:46;;;;;;;18.65;10.15;;;12.10;99.90;;;;;;4824039;29;20046;-49
2022/08/14 03:53:14;;;;;;;12.75;9.75;;;12.10;99.90;;;;;;4823799;29;20045;-50
2022/08/14 03:55:41;;;;;;;14.98;9.75;;;12.10;99.90;;;;;;4823977;29;20661;-50
2022/08/14 03:58:08;;;;;;;13.30;9.80;;;12.00;99.90;;;;;;4823839;29;20045;-49
2022/08/14 04:00:35;;;;;;;17.73;11.07;;;12.10;99.90;;;;;;4824162;29;20030;-50
2022/08/14 04:03:06;;;;;;;22.23;10.68;;;12.00;99.90;;;;;;4823721;29;20407;-51
2022/08/14 04:05:32;;;;;;;14.95;10.30;;;12.10;99.90;;;;;;4823707;29;20391;-50
2022/08/14 04:07:58;;;;;;;16.58;10.30;;;12.10;99.90;;;;;;4822508;29;20041;-50
2022/08/14 04:10:25;;;;;;;18.77;11.40;;;12.20;99.90;;;;;;4823918;29;20035;-49
2022/08/14 04:12:50;;;;;;;21.05;11.00;;;12.30;99.90;;;;;;4823568;29;20039;-50
2022/08/14 04:15:18;;;;;;;15.52;9.65;;;12.30;99.90;;;;;;4823907;29;20059;-50
2022/08/14 04:17:45;;;;;;;15.13;10.65;;;12.30;99.90;;;;;;4823704;29;20076;-49
2022/08/14 04:20:11;;;;;;;16.42;10.43;;;12.30;99.90;;;;;;4823472;29;20034;-51
2022/08/14 04:22:41;;;;;;;15.80;11.27;;;12.30;99.90;;;;;;4823714;29;20069;-50
2022/08/14 04:25:07;;;;;;;16.77;11.45;;;12.30;99.90;;;;;;4823108;29;20121;-49
2022/08/14 04:27:34;;;;;;;17.63;11.27;;;12.30;99.90;;;;;;4823464;29;20103;-50
2022/08/14 04:30:00;;;;;;;16.42;10.93;;;12.30;99.90;;;;;;4823469;29;20038;-50
2022/08/14 04:32:25;;;;;;;24.83;10.25;;;12.40;99.90;;;;;;4823323;29;20041;-50
2022/08/14 04:34:52;;;;;;;14.32;11.38;;;12.40;99.90;;;;;;4823549;29;20026;-51
2022/08/14 04:45:41;;;;;;;12.82;10.02;;;12.60;99.90;;;;;;4823567;29;20053;-51
2022/08/14 04:48:14;;;;;;;17.60;9.45;;;12.60;99.90;;;;;;4822550;29;20073;-50
2022/08/14 04:50:43;;;;;;;12.57;10.10;;;12.70;99.90;;;;;;4823226;29;20038;-50
2022/08/14 04:53:11;;;;;;;17.40;11.07;;;12.80;99.90;;;;;;4823248;29;20081;-51
2022/08/14 04:55:39;;;;;;;19.48;10.13;;;12.80;99.90;;;;;;4823212;29;20109;-51
2022/08/14 04:58:05;;;;;;;14.13;9.90;;;13.00;99.90;;;;;;4822869;29;20038;-50
2022/08/14 05:00:31;;;;;;;13.35;10.50;;;13.10;99.90;;;;;;4823081;29;20041;-50
2022/08/14 05:02:57;;;;;;;19.92;11.10;;;13.10;99.90;;;;;;4823081;29;20038;-50
2022/08/14 05:05:23;;;;;;;17.98;10.63;;;13.10;99.90;;;;;;4823284;29;20090;-50
2022/08/14 05:07:50;;;;;;;14.73;10.88;;;13.30;99.90;;;;;;4822659;29;20041;-52
2022/08/14 05:10:17;;;;;;;13.82;11.27;;;13.40;99.90;;;;;;4822620;29;20737;-50
2022/08/14 05:12:44;;;;;;;14.68;11.30;;;13.40;99.90;;;;;;4822618;29;20360;-51
2022/08/14 05:15:10;;;;;;;16.00;11.40;;;13.50;99.90;;;;;;4822960;29;20038;-50
2022/08/14 05:17:41;;;;;;;12.65;11.05;;;13.70;99.90;;;;;;4822959;29;20079;-51
2022/08/14 05:20:08;;;;;;;18.65;11.70;;;13.80;99.90;;;;;;4822730;29;20098;-51
2022/08/14 05:22:33;;;;;;;13.73;10.82;;;13.90;99.90;;;;;;4822828;29;20034;-51
2022/08/14 05:25:00;;;;;;;13.55;11.32;;;14.00;99.90;;;;;;4822710;29;20090;-52
2022/08/14 05:27:26;;;;;;;12.88;11.57;;;14.10;99.90;;;;;;4822825;29;20022;-51
2022/08/14 05:29:54;;;;;;;13.90;11.18;;;14.20;99.90;;;;;;4822659;29;20376;-51
2022/08/14 05:32:20;;;;;;;13.70;11.40;;;14.40;99.90;;;;;;4822575;29;20033;-49
2022/08/14 05:34:46;;;;;;;15.93;13.60;;;14.50;99.90;;;;;;4822686;29;20027;-51
2022/08/14 05:37:13;;;;;;;15.40;13.40;;;14.60;99.90;;;;;;4822500;29;20026;-50
2022/08/14 05:39:42;;;;;;;14.40;12.18;;;14.80;99.90;;;;;;4822558;29;20620;-50
2022/08/14 05:42:08;;;;;;;13.95;12.45;;;15.00;99.90;;;;;;4822434;29;20049;-50
2022/08/14 05:44:34;;;;;;;14.52;13.02;;;15.10;99.90;;;;;;4822433;29;20038;-51
2022/08/14 05:47:00;;;;;;;15.82;13.93;;;15.20;99.90;;;;;;4822290;29;20038;-51
2022/08/14 05:49:27;;;;;;;20.40;13.70;;;15.20;99.90;;;;;;4822278;29;20053;-51
2022/08/14 05:51:52;;;;;;;19.23;12.90;;;15.30;99.90;;;;;;4822375;29;20039;-52
2022/08/14 05:54:18;;;;;;;17.88;12.40;;;15.50;99.90;;;;;;4822148;29;20049;-51
2022/08/14 05:56:45;;;;;;;11.95;10.75;;;15.60;99.90;;;;;;4822496;29;20039;-52
2022/08/14 05:59:11;;;;;;;19.05;12.77;;;15.70;99.90;;;;;;4823478;29;20060;-53
2022/08/14 06:01:36;;;;;;;20.10;13.10;;;16.00;99.90;;;;;;4825990;29;20045;-51
2022/08/14 06:04:02;;;;;;;17.25;12.65;;;16.10;99.90;;;;;;4825577;29;20068;-51
2022/08/14 06:06:28;;;;;;;15.77;13.27;;;16.20;99.90;;;;;;4825864;29;20019;-50
2022/08/14 06:08:54;;;;;;;14.23;12.80;;;16.30;99.90;;;;;;4825491;29;20437;-50
2022/08/14 06:11:20;;;;;;;16.45;12.57;;;16.30;99.90;;;;;;4824886;29;20087;-54
2022/08/14 06:13:45;;;;;;;15.07;13.48;;;16.40;99.90;;;;;;4825446;29;20137;-50
2022/08/14 06:16:14;;;;;;;16.10;13.25;;;16.50;99.90;;;;;;4825740;29;20056;-51
2022/08/14 06:18:39;;;;;;;13.70;11.93;;;16.70;99.90;;;;;;4825600;29;20114;-51
2022/08/14 06:21:05;;;;;;;13.95;12.05;;;16.90;99.90;;;;;;4825445;29;20114;-50
2022/08/14 06:23:31;;;;;;;15.02;11.70;;;17.10;99.90;;;;;;4825613;29;20034;-51
2022/08/14 06:25:57;;;;;;;14.93;11.07;;;17.20;99.90;;;;;;4825255;29;20430;-50
2022/08/14 06:28:25;;;;;;;10.98;9.85;;;17.40;99.90;;;;;;4825695;29;20053;-52
2022/08/14 06:30:51;;;;;;;11.57;10.38;;;17.60;99.90;;;;;;4825593;29;20022;-52
2022/08/14 06:33:18;;;;;;;12.27;10.95;;;17.80;99.90;;;;;;4825185;29;20058;-51
2022/08/14 06:35:44;;;;;;;11.88;10.60;;;18.00;99.90;;;;;;4825470;29;20048;-51
2022/08/14 06:38:23;;;;;;;12.70;10.10;;;18.10;99.90;;;;;;4825229;29;20401;-51
2022/08/14 06:40:50;;;;;;;10.40;9.38;;;18.30;99.90;;;;;;4823986;29;20031;-51
2022/08/14 06:43:18;;;;;;;10.63;9.52;;;18.40;99.90;;;;;;4825016;29;20083;-51
2022/08/14 06:45:45;;;;;;;12.82;9.27;;;18.50;99.90;;;;;;4825378;29;20041;-51
2022/08/14 06:48:20;;;;;;;11.63;9.45;;;18.50;99.90;;;;;;4823585;29;20043;-68
2022/08/14 06:50:46;;;;;;;12.95;9.95;;;18.60;99.90;;;;;;4824423;29;20037;-51
2022/08/14 06:53:13;;;;;;;10.43;8.90;;;18.80;99.90;;;;;;4824301;29;20023;-52
2022/08/14 06:55:41;;;;;;;10.35;9.32;;;18.90;99.90;;;;;;4824556;29;20030;-51
2022/08/14 06:58:11;;;;;;;11.02;9.25;;;19.10;99.90;;;;;;4824023;29;20471;-52
2022/08/14 07:00:37;;;;;;;10.82;9.63;;;19.30;99.90;;;;;;4824726;29;20041;-51
2022/08/14 07:05:47;;;;;;;10.43;9.38;;;19.60;99.90;;;;;;4824240;29;20114;-55
2022/08/14 07:08:21;;;;;;;13.15;9.18;;;19.80;99.90;;;;;;4823801;29;20026;-54
2022/08/14 07:10:52;;;;;;;9.55;8.52;;;20.10;99.90;;;;;;4824510;29;20037;-54
2022/08/14 07:13:19;;;;;;;15.63;9.60;;;20.20;99.90;;;;;;4824477;29;20074;-55
2022/08/14 07:15:47;;;;;;;9.30;8.50;;;20.30;99.90;;;;;;4824645;29;20027;-52
2022/08/14 07:18:13;;;;;;;11.10;8.35;;;20.50;99.90;;;;;;4824451;29;20026;-51
2022/08/14 07:20:40;;;;;;;9.93;8.93;;;20.70;99.90;;;;;;4824574;29;21659;-51
2022/08/14 07:23:08;;;;;;;9.98;8.65;;;20.80;99.90;;;;;;4823439;29;20573;-56
2022/08/14 07:25:39;;;;;;;11.07;9.27;;;20.90;99.90;;;;;;4824542;29;20027;-55
2022/08/14 07:28:16;;;;;;;15.48;8.73;;;21.00;99.90;;;;;;4824637;29;20037;-55
2022/08/14 07:30:42;;;;;;;11.75;9.13;;;21.00;99.90;;;;;;4808108;29;20030;-56
2022/08/14 07:33:09;;;;;;;10.38;8.63;;;21.10;99.90;;;;;;4806400;29;20518;-53
2022/08/14 07:35:36;;;;;;;10.95;9.35;;;21.10;99.90;;;;;;4811897;29;20042;-54
2022/08/14 07:38:03;;;;;;;12.90;10.50;;;21.10;99.90;;;;;;4824205;29;20030;-53
2022/08/14 07:40:29;;;;;;;14.95;9.68;;;21.10;99.90;;;;;;4824258;29;20026;-52
2022/08/14 07:42:54;;;;;;;11.95;9.70;;;21.10;99.90;;;;;;4824333;29;20049;-53
2022/08/14 07:45:20;;;;;;;11.85;10.20;;;21.20;99.90;;;;;;4823208;29;20125;-53
2022/08/14 07:47:46;;;;;;;14.77;10.20;;;21.20;99.90;;;;;;4823523;29;20550;-53
2022/08/14 07:50:14;;;;;;;11.95;10.30;;;21.20;99.90;;;;;;4824033;29;20034;-53
2022/08/14 07:52:45;;;;;;;10.73;9.15;;;21.30;99.90;;;;;;4824118;29;20037;-51
2022/08/14 07:55:13;;;;;;;14.77;10.73;;;21.30;99.90;;;;;;4824069;29;20053;-50
2022/08/14 07:57:40;;;;;;;11.70;10.50;;;21.50;99.90;;;;;;4823857;29;20375;-49
2022/08/14 08:00:15;;;;;;;9.60;8.25;;;21.50;99.90;;;;;;4822586;29;20063;-57
2022/08/14 08:02:43;;;;;;;9.98;8.88;;;21.70;99.90;;;;;;4822893;29;20041;-54
2022/08/14 08:05:10;;;;;;;14.15;9.00;;;21.80;99.90;;;;;;4822848;29;20026;-49
2022/08/14 08:07:37;;;;;;;10.45;8.73;;;22.00;99.90;;;;;;4821424;29;20058;-52
2022/08/14 08:12:55;;;;;;;13.77;7.97;;;21.90;99.90;;;;;;4822792;29;20103;-50
2022/08/14 08:15:23;;;;;;;11.63;8.77;;;22.00;99.90;;;;;;4823606;29;20083;-49
2022/08/14 08:17:50;;;;;;;12.40;8.30;;;22.10;99.90;;;;;;4823686;29;20034;-54
2022/08/14 08:20:25;;;;;;;11.45;8.27;;;22.20;99.90;;;;;;4822842;29;20037;-52
2022/08/14 08:22:55;;;;;;;9.30;7.82;;;22.40;99.90;;;;;;4822957;29;20042;-52
2022/08/14 08:25:21;;;;;;;11.60;8.73;;;22.50;99.90;;;;;;4823697;29;20400;-51
2022/08/14 08:27:57;;;;;;;9.57;8.55;;;22.60;99.90;;;;;;4823597;29;20030;-53
2022/08/14 08:30:23;;;;;;;13.15;8.52;;;22.40;99.90;;;;;;4823603;29;20432;-54
2022/08/14 08:32:51;;;;;;;10.07;8.43;;;22.50;99.90;;;;;;4823340;29;20425;-51
2022/08/14 08:35:25;;;;;;;14.25;8.00;;;22.50;99.70;;;;;;4823328;29;20034;-50
2022/08/14 08:37:53;;;;;;;8.95;8.05;;;22.60;99.90;;;;;;4823638;29;20046;-52
2022/08/14 08:40:30;;;;;;;10.05;8.75;;;22.70;99.90;;;;;;4823381;29;20026;-50
2022/08/14 08:42:56;;;;;;;9.48;7.95;;;23.00;99.90;;;;;;4822245;29;20475;-51
2022/08/14 08:45:22;;;;;;;10.82;8.73;;;23.30;99.60;;;;;;4823419;29;20026;-52
2022/08/14 08:47:49;;;;;;;14.57;8.73;;;23.40;99.60;;;;;;4823190;29;20106;-51
2022/08/14 08:50:28;;;;;;;9.32;8.32;;;23.60;99.10;;;;;;4823151;29;20062;-49
2022/08/14 08:52:55;;;;;;;9.30;8.18;;;23.70;99.70;;;;;;4823388;29;20034;-54
2022/08/14 08:55:41;;;;;;;8.93;8.00;;;23.80;98.80;;;;;;4823309;29;20031;-54
2022/08/14 08:58:12;;;;;;;8.88;7.85;;;23.90;99.10;;;;;;4822987;29;20581;-54
2022/08/14 09:00:40;;;;;;;10.32;7.60;;;23.90;98.00;;;;;;4823199;29;20030;-55
2022/08/14 09:03:14;;;;;;;10.20;7.45;;;23.90;99.50;;;;;;4815715;29;20026;-54
2022/08/14 09:05:53;;;;;;;12.18;8.02;;;24.20;98.50;;;;;;4804294;29;20039;-55
2022/08/14 09:08:27;;;;;;;11.13;8.10;;;24.30;98.70;;;;;;4804688;29;20030;-55
2022/08/14 09:10:54;;;;;;;9.43;8.52;;;24.50;97.90;;;;;;4804538;29;20037;-57
2022/08/14 09:13:24;;;;;;;8.65;7.30;;;24.40;97.90;;;;;;4804500;29;20143;-55
2022/08/14 09:15:50;;;;;;;10.00;8.10;;;24.50;97.90;;;;;;4803378;29;20494;-57
2022/08/14 09:18:18;;;;;;;10.88;7.60;;;24.80;98.50;;;;;;4817871;29;20076;-54
2022/08/14 09:20:46;;;;;;;9.38;8.25;;;24.90;97.40;;;;;;4822897;29;20027;-56
2022/08/14 09:23:13;;;;;;;9.38;7.05;;;24.70;97.50;;;;;;4822723;29;20039;-53
2022/08/14 09:25:43;;;;;;;7.60;6.70;;;24.70;98.30;;;;;;4822796;29;20034;-52
2022/08/14 09:28:09;;;;;;;12.05;7.05;;;25.00;98.10;;;;;;4822750;29;20030;-52
2022/08/14 09:30:40;;;;;;;8.02;7.03;;;25.00;96.20;;;;;;4822272;29;20026;-53
2022/08/14 09:33:20;;;;;;;13.77;6.90;;;25.10;96.50;;;;;;4822088;29;20042;-53
2022/08/14 09:35:56;;;;;;;15.05;6.28;;;25.40;98.20;;;;;;4822471;29;20042;-55
2022/08/14 09:38:46;;;;;;;6.97;6.35;;;25.30;96.40;;;;;;4822591;29;20371;-54
2022/08/14 09:41:27;;;;;;;6.13;5.20;;;25.50;96.80;;;;;;4822370;29;20576;-53
2022/08/14 09:44:13;;;;;;;10.98;6.43;;;25.70;95.70;;;;;;4822609;29;20022;-53
2022/08/14 09:46:39;;;;;;;6.45;5.78;;;25.50;96.40;;;;;;4822550;29;20023;-52
2022/08/14 09:49:06;;;;;;;10.52;6.28;;;25.60;95.50;;;;;;4822005;29;20033;-54
2022/08/14 09:51:38;;;;;;;15.55;7.15;;;25.50;96.40;;;;;;4822555;29;20109;-54
2022/08/14 09:54:08;;;;;;;8.75;7.10;;;25.80;95.50;;;;;;4822118;29;20038;-55
2022/08/14 09:56:48;;;;;;;8.13;7.03;;;26.20;95.20;;;;;;4822329;29;20022;-52
2022/08/14 09:59:21;;;;;;;9.07;7.10;;;26.30;95.20;;;;;;4822452;29;20046;-52
2022/08/14 10:01:48;;;;;;;9.40;6.38;;;26.30;95.30;;;;;;4822432;29;20035;-53
2022/08/14 10:04:23;;;;;;;7.63;6.90;;;26.40;95.40;;;;;;4821997;29;20034;-55
2022/08/14 10:06:50;;;;;;;11.32;6.60;;;26.70;94.40;;;;;;4822112;29;20042;-53
2022/08/14 10:09:17;;;;;;;7.22;5.63;;;26.90;93.10;;;;;;4821805;29;20038;-56
2022/08/14 10:11:54;;;;;;;10.70;6.43;;;27.00;92.60;;;;;;4807333;29;20502;-55
2022/08/14 10:14:23;;;;;;;8.95;6.60;;;27.30;93.60;;;;;;4808232;29;20055;-52
2022/08/14 10:16:55;;;;;;;7.97;5.68;;;27.70;93.30;;;;;;4811691;29;20028;-54
2022/08/14 10:19:24;;;;;;;8.85;5.35;;;27.80;92.40;;;;;;4810604;29;20503;-53
2022/08/14 10:22:09;;;;;;;9.43;6.00;;;27.70;92.80;;;;;;4803914;29;20027;-52
2022/08/14 10:24:45;;;;;;;8.77;6.47;;;27.70;91.90;;;;;;4804260;29;20522;-56
2022/08/14 10:27:22;;;;;;;9.13;6.80;;;27.50;92.30;;;;;;4803951;29;20061;-51
2022/08/14 10:30:13;;;;;;;6.60;5.60;;;26.50;91.70;;;;;;4803225;29;20031;-54
2022/08/14 10:32:46;;;;;;;15.00;6.22;;;26.30;92.30;;;;;;4805519;29;20412;-53
2022/08/14 10:35:13;;;;;;;8.73;5.60;;;26.70;93.10;;;;;;4803849;29;20027;-56
2022/08/14 10:37:48;;;;;;;9.07;5.93;;;27.00;92.90;;;;;;4802700;29;20345;-54
2022/08/14 10:40:26;;;;;;;8.43;5.78;;;27.30;93.00;;;;;;4803733;29;20042;-55
2022/08/14 10:42:52;;;;;;;10.88;6.40;;;27.60;91.90;;;;;;4803907;29;20046;-56
2022/08/14 10:45:29;;;;;;;6.20;5.30;;;27.50;90.50;;;;;;4805292;29;20027;-51
2022/08/14 10:47:55;;;;;;;6.55;5.53;;;27.50;91.20;;;;;;4807120;29;20511;-55
2022/08/14 10:50:32;;;;;;;9.80;5.60;;;27.60;90.50;;;;;;4807285;29;20380;-52
2022/08/14 10:52:58;;;;;;;8.85;5.13;;;28.00;90.20;;;;;;4818886;29;20152;-56
2022/08/14 10:55:38;;;;;;;10.43;5.97;;;27.70;86.80;;;;;;4825090;29;20113;-53
2022/08/14 10:58:09;;;;;;;12.73;6.93;;;27.80;88.50;;;;;;4825008;29;20027;-55
2022/08/14 11:00:36;;;;;;;7.10;5.50;;;28.00;88.80;;;;;;4823937;29;20039;-55
2022/08/14 11:03:02;;;;;;;6.18;5.53;;;28.40;88.30;;;;;;4824513;29;20042;-55
2022/08/14 11:05:47;;;;;;;9.10;5.25;;;28.40;86.90;;;;;;4825002;29;20163;-56
2022/08/14 11:08:14;;;;;;;11.38;6.13;;;28.30;85.00;;;;;;4816746;29;20035;-56
2022/08/14 11:10:43;;;;;;;8.30;5.50;;;28.50;89.30;;;;;;4796015;29;20138;-55
2022/08/14 11:13:14;;;;;;;6.97;5.28;;;29.00;88.30;;;;;;4797962;29;20043;-55
2022/08/14 11:15:40;;;;;;;6.53;5.45;;;28.80;85.40;;;;;;4797810;29;20047;-55
2022/08/14 11:18:06;;;;;;;5.50;5.00;;;29.00;83.00;;;;;;4795895;29;20039;-55
2022/08/14 11:20:31;;;;;;;5.75;5.15;;;28.80;84.50;;;;;;4797192;29;20747;-53
2022/08/14 11:22:59;;;;;;;5.80;5.30;;;29.10;85.90;;;;;;4796466;29;20042;-54
2022/08/14 11:25:29;;;;;;;5.97;5.40;;;29.20;84.30;;;;;;4795848;29;20507;-56
2022/08/14 11:27:56;;;;;;;5.55;5.05;;;29.40;81.90;;;;;;4796422;29;20099;-56
2022/08/14 11:30:24;;;;;;;6.43;5.82;;;29.10;83.00;;;;;;4795634;29;20039;-55
2022/08/14 11:32:51;;;;;;;5.72;5.22;;;29.00;81.90;;;;;;4798703;29;20061;-54
2022/08/14 11:35:23;;;;;;;5.00;4.35;;;29.20;81.80;;;;;;4796464;29;20091;-55
2022/08/14 11:38:03;;;;;;;5.00;4.53;;;29.40;80.50;;;;;;4796276;29;20091;-56
2022/08/14 11:40:33;;;;;;;10.70;5.30;;;29.60;79.30;;;;;;4796684;29;20039;-55
2022/08/14 11:43:01;;;;;;;5.93;5.32;;;29.70;78.50;;;;;;4798091;29;20077;-57
2022/08/14 11:45:33;;;;;;;9.00;4.97;;;30.00;78.30;;;;;;4796178;29;20042;-55
2022/08/14 11:48:00;;;;;;;11.57;5.43;;;30.20;77.90;;;;;;4796037;29;20148;-56
2022/08/14 11:50:32;;;;;;;5.40;4.68;;;31.00;76.30;;;;;;4795744;29;20042;-56
2022/08/14 11:53:01;;;;;;;5.15;4.65;;;31.90;74.00;;;;;;4795674;29;20407;-55
2022/08/14 11:55:32;;;;;;;5.20;4.55;;;32.40;69.70;;;;;;4796185;29;20504;-52
2022/08/14 11:58:02;;;;;;;6.15;4.57;;;32.80;66.50;;;;;;4795253;29;20527;-57
2022/08/14 12:00:32;;;;;;;7.20;4.15;;;33.40;66.70;;;;;;4795551;29;20086;-56
2022/08/14 12:02:59;;;;;;;9.00;4.38;;;33.80;64.40;;;;;;4795088;29;20655;-55
2022/08/14 12:05:41;;;;;;;7.93;4.75;;;34.20;63.60;;;;;;4795892;29;20031;-57
2022/08/14 12:08:08;;;;;;;4.97;4.05;;;34.90;61.70;;;;;;4796528;29;20639;-57
2022/08/14 12:10:39;;;;;;;5.72;3.35;;;35.00;61.80;;;;;;4796661;29;20035;-57
2022/08/14 12:13:15;;;;;;;4.80;4.22;;;35.10;60.90;;;;;;4794965;29;20043;-57
2022/08/14 12:15:43;;;;;;;5.45;3.65;;;35.20;56.80;;;;;;4794854;29;20049;-54
2022/08/14 12:18:10;;;;;;;6.20;3.67;;;35.00;57.50;;;;;;4794994;29;20031;-57
2022/08/14 12:20:41;;;;;;;7.60;3.50;;;35.20;57.10;;;;;;4795758;29;20122;-58
2022/08/14 12:23:22;;;;;;;3.92;3.30;;;35.80;56.20;;;;;;4795288;29;20544;-58
2022/08/14 12:25:48;;;;;;;7.25;3.28;;;35.60;54.10;;;;;;4794408;29;20046;-58
2022/08/14 12:28:14;;;;;;;7.38;3.55;;;35.60;52.80;;;;;;4794885;29;20095;-57
2022/08/14 12:30:47;;;;;;;5.32;4.07;;;35.60;53.10;;;;;;4795371;29;20064;-58
2022/08/14 12:33:25;;;;;;;8.25;4.05;;;36.30;51.70;;;;;;4795166;29;20116;-57
2022/08/14 12:35:53;;;;;;;4.20;3.15;;;36.20;52.10;;;;;;4795025;29;20042;-57
2022/08/14 12:38:32;;;;;;;4.60;3.47;;;37.20;52.80;;;;;;4794819;29;20107;-58
2022/08/14 12:40:57;;;;;;;11.10;3.42;;;36.50;50.80;;;;;;4794434;29;20142;-58
2022/08/14 12:43:23;;;;;;;5.55;3.10;;;36.80;50.70;;;;;;4794434;29;20121;-57
2022/08/14 12:45:56;;;;;;;4.07;2.95;;;37.30;51.60;;;;;;4796046;29;20484;-58
2022/08/14 12:48:23;;;;;;;3.85;3.22;;;36.50;48.50;;;;;;4812263;29;20047;-57
2022/08/14 12:50:51;;;;;;;5.97;3.53;;;36.50;48.00;;;;;;4812721;29;20026;-58
2022/08/14 12:53:17;;;;;;;8.02;3.00;;;36.50;49.90;;;;;;4811672;29;20420;-58
2022/08/14 12:55:44;;;;;;;3.97;3.28;;;36.60;50.10;;;;;;4794312;29;20047;-58
2022/08/14 12:58:11;;;;;;;5.57;3.38;;;36.40;47.40;;;;;;4794696;29;20027;-55
2022/08/14 13:00:51;;;;;;;3.40;3.10;;;36.60;49.70;;;;;;4807170;29;20039;-58
2022/08/14 13:03:25;;;;;;;4.68;2.90;;;36.10;51.40;;;;;;4810904;29;20440;-57